sensor_id;sensor_type;location;lat;lon;timestamp;P1;durP1;ratioP1;P2;durP2;ratioP2
73168;SDS011;61379;59.732;30.468;2023-03-01T00:00:11;6.65;;;6.10;;
73168;SDS011;61379;59.732;30.468;2023-03-01T00:02:38;5.90;;;5.40;;
73168;SDS011;61379;59.732;30.468;2023-03-01T00:05:05;6.00;;;5.60;;
73168;SDS011;61379;59.732;30.468;2023-03-01T00:07:32;6.10;;;5.70;;
73168;SDS011;61379;59.732;30.468;2023-03-01T00:10:00;6.53;;;5.25;;
73168;SDS011;61379;59.732;30.468;2023-03-01T00:12:28;6.10;;;5.60;;
73168;SDS011;61379;59.732;30.468;2023-03-01T00:14:55;5.53;;;5.03;;
73168;SDS011;61379;59.732;30.468;2023-03-01T00:17:22;5.68;;;5.00;;
73168;SDS011;61379;59.732;30.468;2023-03-01T00:19:48;6.45;;;4.93;;
73168;SDS011;61379;59.732;30.468;2023-03-01T00:22:15;5.80;;;5.40;;
73168;SDS011;61379;59.732;30.468;2023-03-01T00:24:42;5.57;;;5.18;;
73168;SDS011;61379;59.732;30.468;2023-03-01T00:27:10;5.70;;;5.40;;
73168;SDS011;61379;59.732;30.468;2023-03-01T00:29:36;5.30;;;4.90;;
73168;SDS011;61379;59.732;30.468;2023-03-01T00:32:03;5.63;;;5.25;;
73168;SDS011;61379;59.732;30.468;2023-03-01T00:34:30;6.28;;;5.88;;
73168;SDS011;61379;59.732;30.468;2023-03-01T00:36:57;5.70;;;5.30;;
73168;SDS011;61379;59.732;30.468;2023-03-01T00:39:30;6.13;;;5.63;;
73168;SDS011;61379;59.732;30.468;2023-03-01T00:41:57;6.43;;;5.82;;
73168;SDS011;61379;59.732;30.468;2023-03-01T00:44:25;6.40;;;5.78;;
73168;SDS011;61379;59.732;30.468;2023-03-01T00:46:53;6.35;;;5.60;;
73168;SDS011;61379;59.732;30.468;2023-03-01T00:49:20;6.07;;;5.63;;
73168;SDS011;61379;59.732;30.468;2023-03-01T00:51:49;7.47;;;6.80;;
73168;SDS011;61379;59.732;30.468;2023-03-01T00:54:16;6.18;;;5.53;;
73168;SDS011;61379;59.732;30.468;2023-03-01T00:56:42;6.15;;;5.75;;
73168;SDS011;61379;59.732;30.468;2023-03-01T00:59:09;5.72;;;5.32;;
73168;SDS011;61379;59.732;30.468;2023-03-01T01:01:37;5.82;;;5.32;;
73168;SDS011;61379;59.732;30.468;2023-03-01T01:04:05;6.13;;;5.47;;
73168;SDS011;61379;59.732;30.468;2023-03-01T01:06:33;5.45;;;5.05;;
73168;SDS011;61379;59.732;30.468;2023-03-01T01:09:00;6.25;;;4.93;;
73168;SDS011;61379;59.732;30.468;2023-03-01T01:11:28;5.50;;;5.00;;
73168;SDS011;61379;59.732;30.468;2023-03-01T01:13:55;5.80;;;5.38;;
73168;SDS011;61379;59.732;30.468;2023-03-01T01:16:23;6.72;;;5.15;;
73168;SDS011;61379;59.732;30.468;2023-03-01T01:18:51;6.38;;;5.88;;
73168;SDS011;61379;59.732;30.468;2023-03-01T01:21:19;6.43;;;5.82;;
73168;SDS011;61379;59.732;30.468;2023-03-01T01:23:46;5.75;;;5.20;;
73168;SDS011;61379;59.732;30.468;2023-03-01T01:26:14;6.05;;;5.45;;
73168;SDS011;61379;59.732;30.468;2023-03-01T01:28:41;5.47;;;5.07;;
73168;SDS011;61379;59.732;30.468;2023-03-01T01:31:07;5.38;;;4.97;;
73168;SDS011;61379;59.732;30.468;2023-03-01T01:33:34;5.47;;;4.82;;
73168;SDS011;61379;59.732;30.468;2023-03-01T01:36:04;5.05;;;4.75;;
73168;SDS011;61379;59.732;30.468;2023-03-01T01:38:31;5.65;;;5.10;;
73168;SDS011;61379;59.732;30.468;2023-03-01T01:40:57;6.47;;;5.40;;
73168;SDS011;61379;59.732;30.468;2023-03-01T01:43:25;5.82;;;5.43;;
73168;SDS011;61379;59.732;30.468;2023-03-01T01:45:52;6.65;;;5.60;;
73168;SDS011;61379;59.732;30.468;2023-03-01T01:48:22;5.95;;;5.45;;
73168;SDS011;61379;59.732;30.468;2023-03-01T01:50:51;6.05;;;5.65;;
73168;SDS011;61379;59.732;30.468;2023-03-01T01:53:21;6.03;;;5.55;;
73168;SDS011;61379;59.732;30.468;2023-03-01T01:55:50;5.80;;;5.40;;
73168;SDS011;61379;59.732;30.468;2023-03-01T01:58:18;5.53;;;5.22;;
73168;SDS011;61379;59.732;30.468;2023-03-01T02:00:45;5.68;;;5.13;;
73168;SDS011;61379;59.732;30.468;2023-03-01T02:03:13;6.28;;;5.72;;
73168;SDS011;61379;59.732;30.468;2023-03-01T02:08:10;6.03;;;5.22;;
73168;SDS011;61379;59.732;30.468;2023-03-01T02:10:39;5.82;;;5.32;;
73168;SDS011;61379;59.732;30.468;2023-03-01T02:13:06;5.80;;;5.30;;
73168;SDS011;61379;59.732;30.468;2023-03-01T02:15:34;8.45;;;5.85;;
73168;SDS011;61379;59.732;30.468;2023-03-01T02:18:01;6.05;;;5.45;;
73168;SDS011;61379;59.732;30.468;2023-03-01T02:20:30;5.60;;;5.20;;
73168;SDS011;61379;59.732;30.468;2023-03-01T02:22:58;8.00;;;5.82;;
73168;SDS011;61379;59.732;30.468;2023-03-01T02:25:29;5.93;;;5.47;;
73168;SDS011;61379;59.732;30.468;2023-03-01T02:27:58;6.50;;;5.93;;
73168;SDS011;61379;59.732;30.468;2023-03-01T02:30:27;6.32;;;5.72;;
73168;SDS011;61379;59.732;30.468;2023-03-01T02:32:55;5.68;;;5.20;;
73168;SDS011;61379;59.732;30.468;2023-03-01T02:35:28;5.97;;;5.47;;
73168;SDS011;61379;59.732;30.468;2023-03-01T02:37:55;6.18;;;5.78;;
73168;SDS011;61379;59.732;30.468;2023-03-01T02:40:22;6.72;;;6.15;;
73168;SDS011;61379;59.732;30.468;2023-03-01T02:42:51;6.47;;;5.88;;
73168;SDS011;61379;59.732;30.468;2023-03-01T02:45:18;6.13;;;5.53;;
73168;SDS011;61379;59.732;30.468;2023-03-01T02:47:46;6.88;;;6.38;;
73168;SDS011;61379;59.732;30.468;2023-03-01T02:50:15;7.13;;;6.53;;
73168;SDS011;61379;59.732;30.468;2023-03-01T02:52:45;6.55;;;5.93;;
73168;SDS011;61379;59.732;30.468;2023-03-01T02:55:14;5.90;;;5.53;;
73168;SDS011;61379;59.732;30.468;2023-03-01T02:57:43;6.82;;;5.97;;
73168;SDS011;61379;59.732;30.468;2023-03-01T03:00:11;6.93;;;6.43;;
73168;SDS011;61379;59.732;30.468;2023-03-01T03:02:46;7.88;;;6.93;;
73168;SDS011;61379;59.732;30.468;2023-03-01T03:05:13;7.50;;;6.82;;
73168;SDS011;61379;59.732;30.468;2023-03-01T03:07:41;9.45;;;7.70;;
73168;SDS011;61379;59.732;30.468;2023-03-01T03:10:08;7.35;;;6.75;;
73168;SDS011;61379;59.732;30.468;2023-03-01T03:12:36;6.78;;;6.32;;
73168;SDS011;61379;59.732;30.468;2023-03-01T03:15:03;7.10;;;6.60;;
73168;SDS011;61379;59.732;30.468;2023-03-01T03:17:34;7.32;;;6.72;;
73168;SDS011;61379;59.732;30.468;2023-03-01T03:20:02;7.38;;;6.70;;
73168;SDS011;61379;59.732;30.468;2023-03-01T03:22:29;6.53;;;6.03;;
73168;SDS011;61379;59.732;30.468;2023-03-01T03:24:56;6.80;;;6.30;;
73168;SDS011;61379;59.732;30.468;2023-03-01T03:27:22;6.18;;;5.70;;
73168;SDS011;61379;59.732;30.468;2023-03-01T03:29:49;6.57;;;6.18;;
73168;SDS011;61379;59.732;30.468;2023-03-01T03:32:16;6.53;;;6.03;;
73168;SDS011;61379;59.732;30.468;2023-03-01T03:34:42;7.47;;;6.90;;
73168;SDS011;61379;59.732;30.468;2023-03-01T03:37:10;7.25;;;6.72;;
73168;SDS011;61379;59.732;30.468;2023-03-01T03:39:57;9.32;;;5.97;;
73168;SDS011;61379;59.732;30.468;2023-03-01T03:42:25;7.18;;;6.47;;
73168;SDS011;61379;59.732;30.468;2023-03-01T03:44:51;10.43;;;7.20;;
73168;SDS011;61379;59.732;30.468;2023-03-01T03:47:18;6.72;;;6.22;;
73168;SDS011;61379;59.732;30.468;2023-03-01T03:49:45;7.15;;;6.45;;
73168;SDS011;61379;59.732;30.468;2023-03-01T03:52:13;6.53;;;5.97;;
73168;SDS011;61379;59.732;30.468;2023-03-01T03:54:39;7.25;;;6.60;;
73168;SDS011;61379;59.732;30.468;2023-03-01T03:57:06;6.78;;;6.18;;
73168;SDS011;61379;59.732;30.468;2023-03-01T03:59:33;7.25;;;6.40;;
73168;SDS011;61379;59.732;30.468;2023-03-01T04:02:00;6.28;;;5.78;;
73168;SDS011;61379;59.732;30.468;2023-03-01T04:04:26;6.85;;;6.35;;
73168;SDS011;61379;59.732;30.468;2023-03-01T04:06:53;6.40;;;5.85;;
73168;SDS011;61379;59.732;30.468;2023-03-01T04:09:21;6.18;;;5.78;;
73168;SDS011;61379;59.732;30.468;2023-03-01T04:11:48;5.90;;;5.50;;
73168;SDS011;61379;59.732;30.468;2023-03-01T04:14:14;6.05;;;5.65;;
73168;SDS011;61379;59.732;30.468;2023-03-01T04:16:41;6.68;;;5.75;;
73168;SDS011;61379;59.732;30.468;2023-03-01T04:19:07;6.57;;;5.97;;
73168;SDS011;61379;59.732;30.468;2023-03-01T04:21:34;7.53;;;6.93;;
73168;SDS011;61379;59.732;30.468;2023-03-01T04:24:01;6.32;;;5.82;;
73168;SDS011;61379;59.732;30.468;2023-03-01T04:26:30;8.50;;;6.05;;
73168;SDS011;61379;59.732;30.468;2023-03-01T04:28:56;7.55;;;6.75;;
73168;SDS011;61379;59.732;30.468;2023-03-01T04:31:23;6.63;;;6.03;;
73168;SDS011;61379;59.732;30.468;2023-03-01T04:33:50;6.72;;;6.07;;
73168;SDS011;61379;59.732;30.468;2023-03-01T04:36:18;7.13;;;6.53;;
73168;SDS011;61379;59.732;30.468;2023-03-01T04:38:45;6.30;;;5.80;;
73168;SDS011;61379;59.732;30.468;2023-03-01T04:41:13;6.88;;;6.32;;
73168;SDS011;61379;59.732;30.468;2023-03-01T04:43:42;7.13;;;6.47;;
73168;SDS011;61379;59.732;30.468;2023-03-01T04:46:09;7.78;;;7.15;;
73168;SDS011;61379;59.732;30.468;2023-03-01T04:48:37;7.13;;;6.53;;
73168;SDS011;61379;59.732;30.468;2023-03-01T04:51:05;7.32;;;6.72;;
73168;SDS011;61379;59.732;30.468;2023-03-01T04:53:33;6.82;;;6.22;;
73168;SDS011;61379;59.732;30.468;2023-03-01T04:56:01;6.30;;;5.63;;
73168;SDS011;61379;59.732;30.468;2023-03-01T04:58:28;6.57;;;5.95;;
73168;SDS011;61379;59.732;30.468;2023-03-01T05:00:56;7.35;;;6.68;;
73168;SDS011;61379;59.732;30.468;2023-03-01T05:03:22;9.18;;;6.32;;
73168;SDS011;61379;59.732;30.468;2023-03-01T05:05:50;7.25;;;6.55;;
73168;SDS011;61379;59.732;30.468;2023-03-01T05:08:17;6.53;;;6.03;;
73168;SDS011;61379;59.732;30.468;2023-03-01T05:10:44;6.43;;;5.82;;
73168;SDS011;61379;59.732;30.468;2023-03-01T05:13:12;6.25;;;5.75;;
73168;SDS011;61379;59.732;30.468;2023-03-01T05:15:40;6.28;;;5.88;;
73168;SDS011;61379;59.732;30.468;2023-03-01T05:18:08;5.93;;;5.43;;
73168;SDS011;61379;59.732;30.468;2023-03-01T05:20:36;6.18;;;5.57;;
73168;SDS011;61379;59.732;30.468;2023-03-01T05:23:03;5.88;;;5.43;;
73168;SDS011;61379;59.732;30.468;2023-03-01T05:25:31;6.88;;;6.47;;
73168;SDS011;61379;59.732;30.468;2023-03-01T05:27:58;6.45;;;5.82;;
73168;SDS011;61379;59.732;30.468;2023-03-01T05:30:29;6.75;;;5.80;;
73168;SDS011;61379;59.732;30.468;2023-03-01T05:32:56;6.57;;;5.72;;
73168;SDS011;61379;59.732;30.468;2023-03-01T05:35:24;6.75;;;6.15;;
73168;SDS011;61379;59.732;30.468;2023-03-01T05:37:51;6.53;;;6.03;;
73168;SDS011;61379;59.732;30.468;2023-03-01T05:40:18;5.85;;;5.40;;
73168;SDS011;61379;59.732;30.468;2023-03-01T05:42:46;5.78;;;5.28;;
73168;SDS011;61379;59.732;30.468;2023-03-01T05:45:13;5.60;;;5.20;;
73168;SDS011;61379;59.732;30.468;2023-03-01T05:47:41;7.57;;;5.43;;
73168;SDS011;61379;59.732;30.468;2023-03-01T05:50:10;6.55;;;5.95;;
73168;SDS011;61379;59.732;30.468;2023-03-01T05:52:39;5.75;;;5.15;;
73168;SDS011;61379;59.732;30.468;2023-03-01T05:55:06;5.45;;;4.97;;
73168;SDS011;61379;59.732;30.468;2023-03-01T05:57:33;5.88;;;5.47;;
73168;SDS011;61379;59.732;30.468;2023-03-01T06:00:00;8.30;;;5.80;;
73168;SDS011;61379;59.732;30.468;2023-03-01T06:02:28;6.20;;;5.72;;
73168;SDS011;61379;59.732;30.468;2023-03-01T06:04:55;6.32;;;5.72;;
73168;SDS011;61379;59.732;30.468;2023-03-01T06:07:22;5.57;;;5.03;;
73168;SDS011;61379;59.732;30.468;2023-03-01T06:09:50;6.20;;;5.60;;
73168;SDS011;61379;59.732;30.468;2023-03-01T06:12:16;5.88;;;5.35;;
73168;SDS011;61379;59.732;30.468;2023-03-01T06:14:44;5.90;;;5.30;;
73168;SDS011;61379;59.732;30.468;2023-03-01T06:17:11;6.20;;;5.60;;
73168;SDS011;61379;59.732;30.468;2023-03-01T06:19:38;19.33;;;9.38;;
73168;SDS011;61379;59.732;30.468;2023-03-01T06:22:04;5.82;;;5.43;;
73168;SDS011;61379;59.732;30.468;2023-03-01T06:24:31;6.43;;;5.55;;
73168;SDS011;61379;59.732;30.468;2023-03-01T06:26:59;6.03;;;5.60;;
73168;SDS011;61379;59.732;30.468;2023-03-01T06:29:26;6.10;;;5.60;;
73168;SDS011;61379;59.732;30.468;2023-03-01T06:31:53;8.05;;;5.60;;
73168;SDS011;61379;59.732;30.468;2023-03-01T06:34:19;6.38;;;5.78;;
73168;SDS011;61379;59.732;30.468;2023-03-01T06:36:47;6.43;;;5.40;;
73168;SDS011;61379;59.732;30.468;2023-03-01T06:39:13;6.95;;;5.32;;
73168;SDS011;61379;59.732;30.468;2023-03-01T06:41:41;7.10;;;5.20;;
73168;SDS011;61379;59.732;30.468;2023-03-01T06:44:09;4.90;;;4.53;;
73168;SDS011;61379;59.732;30.468;2023-03-01T06:46:36;4.93;;;4.53;;
73168;SDS011;61379;59.732;30.468;2023-03-01T06:49:03;6.22;;;5.63;;
73168;SDS011;61379;59.732;30.468;2023-03-01T06:51:34;4.60;;;4.20;;
73168;SDS011;61379;59.732;30.468;2023-03-01T06:54:01;10.82;;;4.45;;
73168;SDS011;61379;59.732;30.468;2023-03-01T06:56:27;4.68;;;4.28;;
73168;SDS011;61379;59.732;30.468;2023-03-01T06:58:54;7.13;;;4.30;;
73168;SDS011;61379;59.732;30.468;2023-03-01T07:01:22;7.40;;;5.50;;
73168;SDS011;61379;59.732;30.468;2023-03-01T07:03:49;9.70;;;4.45;;
73168;SDS011;61379;59.732;30.468;2023-03-01T07:06:15;5.60;;;5.10;;
73168;SDS011;61379;59.732;30.468;2023-03-01T07:08:42;6.13;;;5.28;;
73168;SDS011;61379;59.732;30.468;2023-03-01T07:11:09;5.72;;;5.20;;
73168;SDS011;61379;59.732;30.468;2023-03-01T07:13:36;5.63;;;5.03;;
73168;SDS011;61379;59.732;30.468;2023-03-01T07:16:02;5.93;;;5.35;;
73168;SDS011;61379;59.732;30.468;2023-03-01T07:18:31;11.82;;;6.13;;
73168;SDS011;61379;59.732;30.468;2023-03-01T07:20:57;7.72;;;5.35;;
73168;SDS011;61379;59.732;30.468;2023-03-01T07:23:24;7.85;;;4.72;;
73168;SDS011;61379;59.732;30.468;2023-03-01T07:25:51;5.75;;;4.97;;
73168;SDS011;61379;59.732;30.468;2023-03-01T07:28:18;6.63;;;5.53;;
73168;SDS011;61379;59.732;30.468;2023-03-01T07:30:45;5.70;;;5.20;;
73168;SDS011;61379;59.732;30.468;2023-03-01T07:33:11;6.28;;;5.22;;
73168;SDS011;61379;59.732;30.468;2023-03-01T07:35:40;8.38;;;4.78;;
73168;SDS011;61379;59.732;30.468;2023-03-01T07:38:06;6.93;;;4.55;;
73168;SDS011;61379;59.732;30.468;2023-03-01T07:40:33;6.18;;;5.53;;
73168;SDS011;61379;59.732;30.468;2023-03-01T07:43:00;7.13;;;4.90;;
73168;SDS011;61379;59.732;30.468;2023-03-01T07:45:27;6.90;;;4.65;;
73168;SDS011;61379;59.732;30.468;2023-03-01T07:47:55;6.65;;;4.85;;
73168;SDS011;61379;59.732;30.468;2023-03-01T07:50:22;4.45;;;4.15;;
73168;SDS011;61379;59.732;30.468;2023-03-01T07:52:50;4.82;;;4.43;;
73168;SDS011;61379;59.732;30.468;2023-03-01T07:55:16;7.35;;;4.93;;
73168;SDS011;61379;59.732;30.468;2023-03-01T07:57:44;5.93;;;4.85;;
73168;SDS011;61379;59.732;30.468;2023-03-01T08:00:11;4.75;;;4.40;;
73168;SDS011;61379;59.732;30.468;2023-03-01T08:02:38;7.22;;;5.65;;
73168;SDS011;61379;59.732;30.468;2023-03-01T08:05:07;9.35;;;6.20;;
73168;SDS011;61379;59.732;30.468;2023-03-01T08:07:34;6.57;;;5.00;;
73168;SDS011;61379;59.732;30.468;2023-03-01T08:10:02;6.72;;;5.32;;
73168;SDS011;61379;59.732;30.468;2023-03-01T08:12:29;7.57;;;5.47;;
73168;SDS011;61379;59.732;30.468;2023-03-01T08:14:55;5.35;;;4.95;;
73168;SDS011;61379;59.732;30.468;2023-03-01T08:17:23;7.93;;;5.68;;
73168;SDS011;61379;59.732;30.468;2023-03-01T08:19:50;9.05;;;6.05;;
73168;SDS011;61379;59.732;30.468;2023-03-01T08:22:16;7.80;;;6.20;;
73168;SDS011;61379;59.732;30.468;2023-03-01T08:24:43;8.63;;;6.25;;
73168;SDS011;61379;59.732;30.468;2023-03-01T08:27:11;6.18;;;5.53;;
73168;SDS011;61379;59.732;30.468;2023-03-01T08:29:38;6.65;;;5.70;;
73168;SDS011;61379;59.732;30.468;2023-03-01T08:32:05;7.22;;;5.88;;
73168;SDS011;61379;59.732;30.468;2023-03-01T08:34:34;11.13;;;5.80;;
73168;SDS011;61379;59.732;30.468;2023-03-01T08:37:01;6.22;;;5.05;;
73168;SDS011;61379;59.732;30.468;2023-03-01T08:39:28;6.22;;;5.57;;
73168;SDS011;61379;59.732;30.468;2023-03-01T08:41:55;7.82;;;5.10;;
73168;SDS011;61379;59.732;30.468;2023-03-01T08:44:23;5.93;;;5.32;;
73168;SDS011;61379;59.732;30.468;2023-03-01T08:46:50;5.32;;;4.93;;
73168;SDS011;61379;59.732;30.468;2023-03-01T08:49:18;13.65;;;5.95;;
73168;SDS011;61379;59.732;30.468;2023-03-01T08:51:45;8.25;;;5.25;;
73168;SDS011;61379;59.732;30.468;2023-03-01T08:54:13;5.53;;;5.03;;
73168;SDS011;61379;59.732;30.468;2023-03-01T08:56:41;7.72;;;5.35;;
73168;SDS011;61379;59.732;30.468;2023-03-01T08:59:08;7.20;;;5.30;;
73168;SDS011;61379;59.732;30.468;2023-03-01T09:01:36;8.40;;;5.13;;
73168;SDS011;61379;59.732;30.468;2023-03-01T09:04:03;9.63;;;5.30;;
73168;SDS011;61379;59.732;30.468;2023-03-01T09:06:30;5.45;;;4.97;;
73168;SDS011;61379;59.732;30.468;2023-03-01T09:08:58;5.78;;;5.28;;
73168;SDS011;61379;59.732;30.468;2023-03-01T09:11:25;8.43;;;6.38;;
73168;SDS011;61379;59.732;30.468;2023-03-01T09:13:51;7.15;;;6.47;;
73168;SDS011;61379;59.732;30.468;2023-03-01T09:16:19;6.93;;;5.28;;
73168;SDS011;61379;59.732;30.468;2023-03-01T09:18:49;8.02;;;6.22;;
73168;SDS011;61379;59.732;30.468;2023-03-01T09:21:17;7.45;;;5.50;;
73168;SDS011;61379;59.732;30.468;2023-03-01T09:23:44;8.63;;;5.70;;
73168;SDS011;61379;59.732;30.468;2023-03-01T09:26:12;5.93;;;5.20;;
73168;SDS011;61379;59.732;30.468;2023-03-01T09:28:39;13.48;;;6.60;;
73168;SDS011;61379;59.732;30.468;2023-03-01T09:31:06;11.82;;;7.22;;
73168;SDS011;61379;59.732;30.468;2023-03-01T09:33:33;10.75;;;6.43;;
73168;SDS011;61379;59.732;30.468;2023-03-01T09:36:02;11.25;;;7.15;;
73168;SDS011;61379;59.732;30.468;2023-03-01T09:38:29;7.45;;;6.10;;
73168;SDS011;61379;59.732;30.468;2023-03-01T09:40:56;6.82;;;5.38;;
73168;SDS011;61379;59.732;30.468;2023-03-01T09:43:23;13.10;;;6.57;;
73168;SDS011;61379;59.732;30.468;2023-03-01T09:45:53;8.27;;;6.00;;
73168;SDS011;61379;59.732;30.468;2023-03-01T09:48:21;7.72;;;5.47;;
73168;SDS011;61379;59.732;30.468;2023-03-01T09:50:50;5.57;;;5.07;;
73168;SDS011;61379;59.732;30.468;2023-03-01T09:53:18;8.68;;;5.38;;
73168;SDS011;61379;59.732;30.468;2023-03-01T09:55:48;6.32;;;5.82;;
73168;SDS011;61379;59.732;30.468;2023-03-01T09:58:26;6.18;;;5.32;;
73168;SDS011;61379;59.732;30.468;2023-03-01T10:00:54;7.50;;;6.15;;
73168;SDS011;61379;59.732;30.468;2023-03-01T10:03:24;7.40;;;5.85;;
73168;SDS011;61379;59.732;30.468;2023-03-01T10:05:54;8.30;;;5.97;;
73168;SDS011;61379;59.732;30.468;2023-03-01T10:08:31;7.47;;;5.57;;
73168;SDS011;61379;59.732;30.468;2023-03-01T10:11:01;8.73;;;5.95;;
73168;SDS011;61379;59.732;30.468;2023-03-01T10:13:31;7.70;;;5.80;;
73168;SDS011;61379;59.732;30.468;2023-03-01T10:16:01;7.38;;;6.10;;
73168;SDS011;61379;59.732;30.468;2023-03-01T10:18:29;6.22;;;5.60;;
73168;SDS011;61379;59.732;30.468;2023-03-01T10:20:58;8.38;;;5.50;;
73168;SDS011;61379;59.732;30.468;2023-03-01T10:23:26;7.55;;;5.13;;
73168;SDS011;61379;59.732;30.468;2023-03-01T10:26:00;5.97;;;5.28;;
73168;SDS011;61379;59.732;30.468;2023-03-01T10:28:31;11.57;;;5.68;;
73168;SDS011;61379;59.732;30.468;2023-03-01T10:31:02;7.63;;;5.72;;
73168;SDS011;61379;59.732;30.468;2023-03-01T10:33:31;6.07;;;5.57;;
73168;SDS011;61379;59.732;30.468;2023-03-01T10:35:58;9.40;;;5.47;;
73168;SDS011;61379;59.732;30.468;2023-03-01T10:38:25;10.40;;;5.38;;
73168;SDS011;61379;59.732;30.468;2023-03-01T10:40:53;5.95;;;5.40;;
73168;SDS011;61379;59.732;30.468;2023-03-01T10:45:49;11.38;;;6.65;;
73168;SDS011;61379;59.732;30.468;2023-03-01T10:48:17;8.50;;;5.13;;
73168;SDS011;61379;59.732;30.468;2023-03-01T10:50:45;7.85;;;5.90;;
73168;SDS011;61379;59.732;30.468;2023-03-01T10:53:22;6.50;;;5.68;;
73168;SDS011;61379;59.732;30.468;2023-03-01T10:55:58;5.97;;;5.40;;
73168;SDS011;61379;59.732;30.468;2023-03-01T10:58:26;6.13;;;5.53;;
73168;SDS011;61379;59.732;30.468;2023-03-01T11:00:54;6.32;;;5.72;;
73168;SDS011;61379;59.732;30.468;2023-03-01T11:03:22;6.75;;;6.07;;
73168;SDS011;61379;59.732;30.468;2023-03-01T11:05:50;7.10;;;5.93;;
73168;SDS011;61379;59.732;30.468;2023-03-01T11:08:28;7.30;;;5.57;;
73168;SDS011;61379;59.732;30.468;2023-03-01T11:11:01;5.40;;;4.90;;
73168;SDS011;61379;59.732;30.468;2023-03-01T11:13:29;5.20;;;4.68;;
73168;SDS011;61379;59.732;30.468;2023-03-01T11:16:01;6.45;;;5.80;;
73168;SDS011;61379;59.732;30.468;2023-03-01T11:18:29;5.20;;;4.80;;
73168;SDS011;61379;59.732;30.468;2023-03-01T11:20:56;7.05;;;6.35;;
73168;SDS011;61379;59.732;30.468;2023-03-01T11:23:24;7.30;;;5.35;;
73168;SDS011;61379;59.732;30.468;2023-03-01T11:25:53;5.63;;;5.13;;
73168;SDS011;61379;59.732;30.468;2023-03-01T11:28:21;6.40;;;5.75;;
73168;SDS011;61379;59.732;30.468;2023-03-01T11:30:49;6.72;;;6.13;;
73168;SDS011;61379;59.732;30.468;2023-03-01T11:33:21;6.43;;;5.43;;
73168;SDS011;61379;59.732;30.468;2023-03-01T11:35:53;6.07;;;5.43;;
73168;SDS011;61379;59.732;30.468;2023-03-01T11:38:22;6.15;;;5.03;;
73168;SDS011;61379;59.732;30.468;2023-03-01T11:40:50;9.73;;;6.40;;
73168;SDS011;61379;59.732;30.468;2023-03-01T11:43:21;5.78;;;5.18;;
73168;SDS011;61379;59.732;30.468;2023-03-01T11:46:00;8.13;;;5.90;;
73168;SDS011;61379;59.732;30.468;2023-03-01T11:51:13;5.38;;;4.85;;
73168;SDS011;61379;59.732;30.468;2023-03-01T11:53:48;7.72;;;5.78;;
73168;SDS011;61379;59.732;30.468;2023-03-01T11:56:20;6.95;;;5.00;;
73168;SDS011;61379;59.732;30.468;2023-03-01T11:58:59;7.15;;;5.25;;
73168;SDS011;61379;59.732;30.468;2023-03-01T12:01:31;7.70;;;5.38;;
73168;SDS011;61379;59.732;30.468;2023-03-01T12:06:52;11.65;;;5.70;;
73168;SDS011;61379;59.732;30.468;2023-03-01T12:11:52;5.93;;;5.13;;
73168;SDS011;61379;59.732;30.468;2023-03-01T12:14:30;4.85;;;4.45;;
73168;SDS011;61379;59.732;30.468;2023-03-01T12:17:06;5.10;;;4.70;;
73168;SDS011;61379;59.732;30.468;2023-03-01T12:19:42;5.90;;;5.00;;
73168;SDS011;61379;59.732;30.468;2023-03-01T12:22:17;5.82;;;5.43;;
73168;SDS011;61379;59.732;30.468;2023-03-01T12:24:50;6.35;;;5.75;;
73168;SDS011;61379;59.732;30.468;2023-03-01T12:27:28;6.45;;;5.85;;
73168;SDS011;61379;59.732;30.468;2023-03-01T12:30:01;5.60;;;5.20;;
73168;SDS011;61379;59.732;30.468;2023-03-01T12:32:35;7.05;;;6.03;;
73168;SDS011;61379;59.732;30.468;2023-03-01T12:35:11;5.82;;;5.43;;
73168;SDS011;61379;59.732;30.468;2023-03-01T12:37:44;6.28;;;5.80;;
73168;SDS011;61379;59.732;30.468;2023-03-01T12:40:16;6.13;;;5.72;;
73168;SDS011;61379;59.732;30.468;2023-03-01T12:42:48;7.15;;;5.93;;
73168;SDS011;61379;59.732;30.468;2023-03-01T12:45:39;6.03;;;5.57;;
73168;SDS011;61379;59.732;30.468;2023-03-01T12:48:14;6.47;;;5.95;;
73168;SDS011;61379;59.732;30.468;2023-03-01T12:50:46;6.18;;;5.78;;
73168;SDS011;61379;59.732;30.468;2023-03-01T12:53:18;6.47;;;5.97;;
73168;SDS011;61379;59.732;30.468;2023-03-01T12:55:46;6.15;;;5.70;;
73168;SDS011;61379;59.732;30.468;2023-03-01T12:58:17;6.90;;;6.30;;
73168;SDS011;61379;59.732;30.468;2023-03-01T13:00:52;7.50;;;6.80;;
73168;SDS011;61379;59.732;30.468;2023-03-01T13:03:26;9.05;;;7.38;;
73168;SDS011;61379;59.732;30.468;2023-03-01T13:06:00;8.57;;;6.80;;
73168;SDS011;61379;59.732;30.468;2023-03-01T13:08:31;6.40;;;6.00;;
73168;SDS011;61379;59.732;30.468;2023-03-01T13:11:02;8.05;;;7.05;;
73168;SDS011;61379;59.732;30.468;2023-03-01T13:13:30;8.15;;;7.07;;
73168;SDS011;61379;59.732;30.468;2023-03-01T13:15:56;8.30;;;7.50;;
73168;SDS011;61379;59.732;30.468;2023-03-01T13:18:28;12.27;;;9.88;;
73168;SDS011;61379;59.732;30.468;2023-03-01T13:20:55;15.15;;;10.75;;
73168;SDS011;61379;59.732;30.468;2023-03-01T13:23:26;10.25;;;8.05;;
73168;SDS011;61379;59.732;30.468;2023-03-01T13:26:02;10.05;;;9.15;;
73168;SDS011;61379;59.732;30.468;2023-03-01T13:28:36;9.00;;;8.20;;
73168;SDS011;61379;59.732;30.468;2023-03-01T13:31:06;8.93;;;8.20;;
73168;SDS011;61379;59.732;30.468;2023-03-01T13:33:37;7.97;;;7.13;;
73168;SDS011;61379;59.732;30.468;2023-03-01T13:36:05;7.65;;;6.95;;
73168;SDS011;61379;59.732;30.468;2023-03-01T13:38:37;8.00;;;7.22;;
73168;SDS011;61379;59.732;30.468;2023-03-01T13:41:05;7.28;;;6.70;;
73168;SDS011;61379;59.732;30.468;2023-03-01T13:43:32;7.78;;;7.05;;
73168;SDS011;61379;59.732;30.468;2023-03-01T13:45:59;8.57;;;6.25;;
73168;SDS011;61379;59.732;30.468;2023-03-01T13:48:27;7.25;;;6.63;;
73168;SDS011;61379;59.732;30.468;2023-03-01T13:50:55;6.38;;;5.88;;
73168;SDS011;61379;59.732;30.468;2023-03-01T13:53:24;6.32;;;5.93;;
73168;SDS011;61379;59.732;30.468;2023-03-01T13:55:52;6.88;;;6.38;;
73168;SDS011;61379;59.732;30.468;2023-03-01T13:58:23;6.57;;;5.97;;
73168;SDS011;61379;59.732;30.468;2023-03-01T14:00:58;6.32;;;5.82;;
73168;SDS011;61379;59.732;30.468;2023-03-01T14:03:25;5.85;;;5.35;;
73168;SDS011;61379;59.732;30.468;2023-03-01T14:06:02;6.05;;;5.55;;
73168;SDS011;61379;59.732;30.468;2023-03-01T14:08:31;6.18;;;5.57;;
73168;SDS011;61379;59.732;30.468;2023-03-01T14:11:20;7.05;;;6.55;;
73168;SDS011;61379;59.732;30.468;2023-03-01T14:13:58;7.57;;;6.85;;
73168;SDS011;61379;59.732;30.468;2023-03-01T14:16:30;6.93;;;6.32;;
73168;SDS011;61379;59.732;30.468;2023-03-01T14:19:02;6.75;;;6.25;;
73168;SDS011;61379;59.732;30.468;2023-03-01T14:21:34;6.53;;;5.97;;
73168;SDS011;61379;59.732;30.468;2023-03-01T14:24:02;7.72;;;7.03;;
73168;SDS011;61379;59.732;30.468;2023-03-01T14:26:29;7.95;;;7.35;;
73168;SDS011;61379;59.732;30.468;2023-03-01T14:28:59;7.25;;;6.75;;
73168;SDS011;61379;59.732;30.468;2023-03-01T14:31:31;7.88;;;7.28;;
73168;SDS011;61379;59.732;30.468;2023-03-01T14:33:58;8.43;;;7.53;;
73168;SDS011;61379;59.732;30.468;2023-03-01T14:36:25;7.70;;;7.07;;
73168;SDS011;61379;59.732;30.468;2023-03-01T14:38:52;7.72;;;6.88;;
73168;SDS011;61379;59.732;30.468;2023-03-01T14:41:21;7.40;;;6.70;;
73168;SDS011;61379;59.732;30.468;2023-03-01T14:43:49;7.78;;;6.25;;
73168;SDS011;61379;59.732;30.468;2023-03-01T14:46:18;7.63;;;7.03;;
73168;SDS011;61379;59.732;30.468;2023-03-01T14:48:47;9.00;;;6.97;;
73168;SDS011;61379;59.732;30.468;2023-03-01T14:51:14;7.55;;;6.88;;
73168;SDS011;61379;59.732;30.468;2023-03-01T14:53:41;8.15;;;6.82;;